Currently 70°F in Simi Valley, California, USA
70°F
70°F / 49°F
15 mph E
0.01"
Thursday, December 14, 2017 8:59 AM PST

Simi Valley, California Climate Summary
Typical October Day

Normal High:    81.5°F (27.5°C)
Normal Low:    56.6°F (13.7°C)
Average:    67.7°F (19.8°C)

Hour    Temperature    Wind Speed    Humidity
12:00 AM    62°F (17°C)    3 mph    62%
1:00 AM    61°F (16°C)    3 mph    62%
2:00 AM    61°F (16°C)    3 mph    62%
3:00 AM    60°F (16°C)    3 mph    63%
4:00 AM    60°F (15°C)    3 mph    63%
5:00 AM    59°F (15°C)    3 mph    63%
6:00 AM    59°F (15°C)    3 mph    64%
7:00 AM    59°F (15°C)    3 mph    65%
8:00 AM    60°F (16°C)    3 mph    64%
9:00 AM    64°F (18°C)    3 mph    61%
10:00 AM    70°F (21°C)    4 mph    53%
11:00 AM    75°F (24°C)    5 mph    45%
12:00 PM    78°F (25°C)    6 mph    40%
1:00 PM    80°F (26°C)    6 mph    37%
2:00 PM    80°F (27°C)    7 mph    38%
3:00 PM    80°F (26°C)    7 mph    40%
4:00 PM    78°F (26°C)    7 mph    42%
5:00 PM    76°F (25°C)    6 mph    44%
6:00 PM    73°F (23°C)    5 mph    49%
7:00 PM    70°F (21°C)    3 mph    55%
8:00 PM    67°F (20°C)    3 mph    58%
9:00 PM    65°F (18°C)    3 mph    60%
10:00 PM    63°F (17°C)    3 mph    61%
11:00 PM    62°F (17°C)    3 mph    62%
 

The Simi Valley, California weather pages are a service of WeatherCurrents.
Copyright ©Thu Dec 14 09:00:22 PST 2017  WeatherCurrents. All rights reserved. - Submit questions and comments - Privacy Policy